sensor_id;sensor_type;location;lat;lon;timestamp;pressure;altitude;pressure_sealevel;temperature;humidity
49585;BME280;35491;49.142;9.210;2023-07-31T00:00:52;99842.88;;;18.86;54.80
49585;BME280;35491;49.142;9.210;2023-07-31T00:02:01;99844.53;;;18.88;55.13
49585;BME280;35491;49.142;9.210;2023-07-31T00:05:12;99846.22;;;18.89;55.13
49585;BME280;35491;49.142;9.210;2023-07-31T00:06:29;99843.91;;;18.85;55.25
49585;BME280;35491;49.142;9.210;2023-07-31T00:07:38;99841.59;;;18.82;55.37
49585;BME280;35491;49.142;9.210;2023-07-31T00:08:44;99850.75;;;18.81;55.16
49585;BME280;35491;49.142;9.210;2023-07-31T00:10:02;99847.00;;;18.82;55.23
49585;BME280;35491;49.142;9.210;2023-07-31T00:12:25;99833.28;;;18.91;55.23
49585;BME280;35491;49.142;9.210;2023-07-31T00:13:42;99834.94;;;18.78;55.57
49585;BME280;35491;49.142;9.210;2023-07-31T00:15:48;99839.72;;;18.76;55.53
49585;BME280;35491;49.142;9.210;2023-07-31T00:16:56;99838.84;;;18.69;55.70
49585;BME280;35491;49.142;9.210;2023-07-31T00:17:57;99838.66;;;18.70;55.72
49585;BME280;35491;49.142;9.210;2023-07-31T00:19:01;99839.72;;;18.76;55.65
49585;BME280;35491;49.142;9.210;2023-07-31T00:20:04;99842.38;;;18.69;55.42
49585;BME280;35491;49.142;9.210;2023-07-31T00:23:14;99834.47;;;18.68;55.74
49585;BME280;35491;49.142;9.210;2023-07-31T00:24:34;99830.09;;;18.67;55.78
49585;BME280;35491;49.142;9.210;2023-07-31T00:25:48;99837.56;;;18.58;55.78
49585;BME280;35491;49.142;9.210;2023-07-31T00:26:51;99824.25;;;18.63;55.69
49585;BME280;35491;49.142;9.210;2023-07-31T00:28:10;99823.00;;;18.66;55.81
49585;BME280;35491;49.142;9.210;2023-07-31T00:29:14;99826.97;;;18.63;56.10
49585;BME280;35491;49.142;9.210;2023-07-31T00:30:53;99830.09;;;18.67;55.72
49585;BME280;35491;49.142;9.210;2023-07-31T00:32:06;99834.03;;;18.58;56.19
49585;BME280;35491;49.142;9.210;2023-07-31T00:37:21;99833.19;;;18.64;55.90
49585;BME280;35491;49.142;9.210;2023-07-31T00:41:08;99827.78;;;18.64;56.10
49585;BME280;35491;49.142;9.210;2023-07-31T00:42:12;99833.16;;;18.57;56.33
49585;BME280;35491;49.142;9.210;2023-07-31T00:43:14;99831.72;;;18.54;56.65
49585;BME280;35491;49.142;9.210;2023-07-31T00:44:20;99820.09;;;18.61;56.45
49585;BME280;35491;49.142;9.210;2023-07-31T00:45:21;99827.16;;;18.62;56.54
49585;BME280;35491;49.142;9.210;2023-07-31T00:46:28;99827.16;;;18.62;56.13
49585;BME280;35491;49.142;9.210;2023-07-31T00:47:30;99824.88;;;18.59;56.25
49585;BME280;35491;49.142;9.210;2023-07-31T00:48:35;99823.41;;;18.63;56.28
49585;BME280;35491;49.142;9.210;2023-07-31T00:49:38;99826.53;;;18.60;56.51
49585;BME280;35491;49.142;9.210;2023-07-31T00:50:44;99822.16;;;18.59;56.34
49585;BME280;35491;49.142;9.210;2023-07-31T00:51:45;99825.25;;;18.55;56.26
49585;BME280;35491;49.142;9.210;2023-07-31T00:52:49;99818.59;;;18.51;56.58
49585;BME280;35491;49.142;9.210;2023-07-31T00:53:52;99820.25;;;18.52;56.48
49585;BME280;35491;49.142;9.210;2023-07-31T00:54:57;99824.63;;;18.53;56.25
49585;BME280;35491;49.142;9.210;2023-07-31T01:00:33;99818.19;;;18.54;56.23
49585;BME280;35491;49.142;9.210;2023-07-31T01:01:34;99807.34;;;18.54;56.27
49585;BME280;35491;49.142;9.210;2023-07-31T01:02:38;99821.13;;;18.60;56.13
49585;BME280;35491;49.142;9.210;2023-07-31T01:03:39;99824.88;;;18.59;56.05
49585;BME280;35491;49.142;9.210;2023-07-31T01:04:45;99814.44;;;18.55;56.27
49585;BME280;35491;49.142;9.210;2023-07-31T01:05:53;99826.91;;;18.50;56.27
49585;BME280;35491;49.142;9.210;2023-07-31T01:07:04;99821.69;;;18.48;56.41
49585;BME280;35491;49.142;9.210;2023-07-31T01:08:32;99816.28;;;18.48;56.17
49585;BME280;35491;49.142;9.210;2023-07-31T01:09:42;99821.06;;;18.46;56.14
49585;BME280;35491;49.142;9.210;2023-07-31T01:10:48;99813.19;;;18.51;55.94
49585;BME280;35491;49.142;9.210;2023-07-31T01:11:53;99818.59;;;18.51;55.88
49585;BME280;35491;49.142;9.210;2023-07-31T01:13:01;99817.16;;;18.55;56.18
49585;BME280;35491;49.142;9.210;2023-07-31T01:14:17;99815.69;;;18.53;56.09
49585;BME280;35491;49.142;9.210;2023-07-31T01:15:18;99814.66;;;18.54;55.88
49585;BME280;35491;49.142;9.210;2023-07-31T01:16:32;99809.84;;;18.49;56.21
49585;BME280;35491;49.142;9.210;2023-07-31T01:17:41;99808.97;;;18.42;56.31
49585;BME280;35491;49.142;9.210;2023-07-31T01:18:49;99807.94;;;18.43;56.27
49585;BME280;35491;49.142;9.210;2023-07-31T01:19:50;99800.06;;;18.48;56.09
49585;BME280;35491;49.142;9.210;2023-07-31T01:21:30;99795.03;;;18.45;56.31
49585;BME280;35491;49.142;9.210;2023-07-31T01:23:20;99795.22;;;18.37;56.42
49585;BME280;35491;49.142;9.210;2023-07-31T01:34:04;99796.22;;;18.22;57.14
49585;BME280;35491;49.142;9.210;2023-07-31T01:35:07;99784.97;;;18.26;56.87
49585;BME280;35491;49.142;9.210;2023-07-31T01:36:08;99796.94;;;18.09;57.17
49585;BME280;35491;49.142;9.210;2023-07-31T01:37:09;99795.91;;;18.11;57.11
49585;BME280;35491;49.142;9.210;2023-07-31T01:38:21;99791.31;;;18.04;57.65
49585;BME280;35491;49.142;9.210;2023-07-31T01:39:22;99779.50;;;18.12;57.13
49585;BME280;35491;49.142;9.210;2023-07-31T01:40:29;99783.88;;;18.13;57.17
49585;BME280;35491;49.142;9.210;2023-07-31T01:41:33;99789.31;;;18.13;57.33
49585;BME280;35491;49.142;9.210;2023-07-31T01:42:48;99781.78;;;18.15;57.24
49585;BME280;35491;49.142;9.210;2023-07-31T01:43:49;99792.34;;;18.03;57.42
49585;BME280;35491;49.142;9.210;2023-07-31T01:44:53;99784.88;;;18.05;57.41
49585;BME280;35491;49.142;9.210;2023-07-31T01:45:53;99781.31;;;18.05;57.78
49585;BME280;35491;49.142;9.210;2023-07-31T01:46:59;99779.78;;;17.96;57.65
49585;BME280;35491;49.142;9.210;2023-07-31T01:48:02;99777.75;;;17.98;57.68
49585;BME280;35491;49.142;9.210;2023-07-31T01:49:08;99775.69;;;18.00;57.90
49585;BME280;35491;49.142;9.210;2023-07-31T01:50:09;99780.06;;;18.01;57.90
49585;BME280;35491;49.142;9.210;2023-07-31T01:51:13;99773.44;;;18.03;57.69
49585;BME280;35491;49.142;9.210;2023-07-31T01:52:14;99778.03;;;18.09;57.60
49585;BME280;35491;49.142;9.210;2023-07-31T01:53:17;99779.25;;;18.07;57.45
49585;BME280;35491;49.142;9.210;2023-07-31T01:54:18;99781.97;;;18.07;57.65
49585;BME280;35491;49.142;9.210;2023-07-31T01:55:21;99777.84;;;18.11;57.38
49585;BME280;35491;49.142;9.210;2023-07-31T01:56:22;99777.19;;;18.09;57.53
49585;BME280;35491;49.142;9.210;2023-07-31T01:57:24;99780.28;;;18.06;58.09
49585;BME280;35491;49.142;9.210;2023-07-31T01:58:27;99775.91;;;18.05;57.94
49585;BME280;35491;49.142;9.210;2023-07-31T01:59:28;99775.13;;;18.11;57.95
49585;BME280;35491;49.142;9.210;2023-07-31T02:00:31;99774.72;;;18.14;57.91
49585;BME280;35491;49.142;9.210;2023-07-31T02:01:32;99779.69;;;18.04;57.95
49585;BME280;35491;49.142;9.210;2023-07-31T02:02:36;99777.38;;;18.01;58.12
49585;BME280;35491;49.142;9.210;2023-07-31T02:03:36;99770.13;;;18.08;57.84
49585;BME280;35491;49.142;9.210;2023-07-31T02:04:42;99773.47;;;18.10;57.79
49585;BME280;35491;49.142;9.210;2023-07-31T02:05:46;99769.09;;;18.09;58.10
49585;BME280;35491;49.142;9.210;2023-07-31T02:06:50;99768.47;;;18.14;58.15
49585;BME280;35491;49.142;9.210;2023-07-31T02:07:50;99768.09;;;18.17;57.83
49585;BME280;35491;49.142;9.210;2023-07-31T02:08:54;99772.22;;;18.13;57.73
49585;BME280;35491;49.142;9.210;2023-07-31T02:09:55;99768.09;;;18.17;57.97
49585;BME280;35491;49.142;9.210;2023-07-31T02:10:59;99761.44;;;18.19;57.81
49585;BME280;35491;49.142;9.210;2023-07-31T02:11:59;99752.28;;;18.20;57.53
49585;BME280;35491;49.142;9.210;2023-07-31T02:13:03;99769.56;;;18.19;57.89
49585;BME280;35491;49.142;9.210;2023-07-31T02:14:04;99756.03;;;18.19;57.45
49585;BME280;35491;49.142;9.210;2023-07-31T02:15:09;99755.59;;;18.16;57.74
49585;BME280;35491;49.142;9.210;2023-07-31T02:16:10;99757.66;;;18.14;57.64
49585;BME280;35491;49.142;9.210;2023-07-31T02:17:13;99757.88;;;18.12;57.91
49585;BME280;35491;49.142;9.210;2023-07-31T02:18:14;99755.16;;;18.12;57.66
49585;BME280;35491;49.142;9.210;2023-07-31T02:19:17;99765.75;;;18.07;57.88
49585;BME280;35491;49.142;9.210;2023-07-31T02:20:21;99760.16;;;18.08;57.91
49585;BME280;35491;49.142;9.210;2023-07-31T02:21:24;99758.25;;;18.09;58.06
49585;BME280;35491;49.142;9.210;2023-07-31T02:22:25;99757.84;;;18.05;58.02
49585;BME280;35491;49.142;9.210;2023-07-31T02:23:28;99753.69;;;18.03;58.29
49585;BME280;35491;49.142;9.210;2023-07-31T02:24:29;99754.72;;;18.02;57.95
49585;BME280;35491;49.142;9.210;2023-07-31T02:25:34;99758.06;;;18.04;58.10
49585;BME280;35491;49.142;9.210;2023-07-31T02:26:35;99757.56;;;17.93;58.18
49585;BME280;35491;49.142;9.210;2023-07-31T02:27:38;99750.72;;;17.98;58.20
49585;BME280;35491;49.142;9.210;2023-07-31T02:28:41;99745.31;;;17.98;57.96
49585;BME280;35491;49.142;9.210;2023-07-31T02:29:46;99750.53;;;17.99;58.29
49585;BME280;35491;49.142;9.210;2023-07-31T02:30:46;99748.41;;;17.95;58.16
49585;BME280;35491;49.142;9.210;2023-07-31T02:31:50;99741.56;;;17.99;58.27
49585;BME280;35491;49.142;9.210;2023-07-31T02:32:51;99748.66;;;18.00;57.94
49585;BME280;35491;49.142;9.210;2023-07-31T02:33:54;99750.94;;;17.96;57.93
49585;BME280;35491;49.142;9.210;2023-07-31T02:34:56;99742.22;;;18.01;57.92
49585;BME280;35491;49.142;9.210;2023-07-31T02:36:02;99739.22;;;17.96;57.98
49585;BME280;35491;49.142;9.210;2023-07-31T02:37:03;99748.13;;;17.83;58.42
49585;BME280;35491;49.142;9.210;2023-07-31T02:38:06;99740.66;;;17.85;58.01
49585;BME280;35491;49.142;9.210;2023-07-31T02:39:10;99744.59;;;17.82;58.23
49585;BME280;35491;49.142;9.210;2023-07-31T02:40:11;99740.91;;;17.90;57.90
49585;BME280;35491;49.142;9.210;2023-07-31T02:41:15;99735.91;;;17.93;57.88
49585;BME280;35491;49.142;9.210;2023-07-31T02:42:16;99740.47;;;17.93;58.10
49585;BME280;35491;49.142;9.210;2023-07-31T02:43:18;99737.59;;;17.95;57.79
49585;BME280;35491;49.142;9.210;2023-07-31T02:44:26;99739.66;;;17.92;57.71
49585;BME280;35491;49.142;9.210;2023-07-31T02:45:27;99737.97;;;17.91;57.70
49585;BME280;35491;49.142;9.210;2023-07-31T02:46:30;99732.56;;;17.91;58.02
49585;BME280;35491;49.142;9.210;2023-07-31T02:47:32;99732.19;;;17.95;57.83
49585;BME280;35491;49.142;9.210;2023-07-31T02:48:35;99742.53;;;17.91;58.03
49585;BME280;35491;49.142;9.210;2023-07-31T02:49:37;99736.53;;;17.96;57.83
49585;BME280;35491;49.142;9.210;2023-07-31T02:50:41;99739.91;;;17.98;57.67
49585;BME280;35491;49.142;9.210;2023-07-31T02:51:44;99740.53;;;18.00;57.75
49585;BME280;35491;49.142;9.210;2023-07-31T02:52:47;99743.00;;;17.95;57.85
49585;BME280;35491;49.142;9.210;2023-07-31T02:53:48;99740.91;;;17.90;58.15
49585;BME280;35491;49.142;9.210;2023-07-31T02:54:52;99737.59;;;17.95;57.69
49585;BME280;35491;49.142;9.210;2023-07-31T02:55:53;99743.63;;;17.97;57.68
49585;BME280;35491;49.142;9.210;2023-07-31T02:56:56;99734.22;;;17.86;58.26
49585;BME280;35491;49.142;9.210;2023-07-31T02:57:57;99735.00;;;17.80;58.09
49585;BME280;35491;49.142;9.210;2023-07-31T02:59:00;99737.13;;;17.84;58.46
49585;BME280;35491;49.142;9.210;2023-07-31T03:00:01;99733.13;;;17.80;58.26
49585;BME280;35491;49.142;9.210;2023-07-31T03:01:09;99730.44;;;17.80;58.40
49585;BME280;35491;49.142;9.210;2023-07-31T03:02:12;99734.97;;;17.73;58.54
49585;BME280;35491;49.142;9.210;2023-07-31T03:03:23;99734.34;;;17.71;58.94
49585;BME280;35491;49.142;9.210;2023-07-31T03:04:44;99739.53;;;17.72;59.02
49585;BME280;35491;49.142;9.210;2023-07-31T03:06:06;99734.97;;;17.73;58.66
49585;BME280;35491;49.142;9.210;2023-07-31T03:07:28;99739.97;;;17.76;58.71
49585;BME280;35491;49.142;9.210;2023-07-31T03:08:40;99745.38;;;17.76;58.87
49585;BME280;35491;49.142;9.210;2023-07-31T03:09:43;99738.75;;;17.78;58.63
49585;BME280;35491;49.142;9.210;2023-07-31T03:12:07;99741.25;;;17.80;58.44
49585;BME280;35491;49.142;9.210;2023-07-31T03:13:13;99741.25;;;17.80;58.42
49585;BME280;35491;49.142;9.210;2023-07-31T03:14:30;99735.84;;;17.80;58.80
49585;BME280;35491;49.142;9.210;2023-07-31T03:15:41;99736.09;;;17.85;58.61
49585;BME280;35491;49.142;9.210;2023-07-31T03:16:42;99734.22;;;17.86;58.35
49585;BME280;35491;49.142;9.210;2023-07-31T03:17:46;99733.81;;;17.89;58.58
49585;BME280;35491;49.142;9.210;2023-07-31T03:18:50;99737.72;;;17.86;58.67
49585;BME280;35491;49.142;9.210;2023-07-31T03:19:53;99738.34;;;17.82;58.50
49585;BME280;35491;49.142;9.210;2023-07-31T03:20:54;99738.97;;;17.84;58.77
49585;BME280;35491;49.142;9.210;2023-07-31T03:23:06;99733.13;;;17.80;58.52
49585;BME280;35491;49.142;9.210;2023-07-31T03:24:09;99733.34;;;17.78;58.66
49585;BME280;35491;49.142;9.210;2023-07-31T03:25:10;99728.75;;;17.79;58.79
49585;BME280;35491;49.142;9.210;2023-07-31T03:26:14;99736.22;;;17.77;58.91
49585;BME280;35491;49.142;9.210;2023-07-31T03:27:15;99735.84;;;17.80;58.73
49585;BME280;35491;49.142;9.210;2023-07-31T03:28:35;99729.16;;;17.76;58.63
49585;BME280;35491;49.142;9.210;2023-07-31T03:29:43;99731.47;;;17.79;58.77
49585;BME280;35491;49.142;9.210;2023-07-31T03:30:47;99732.09;;;17.81;58.42
49585;BME280;35491;49.142;9.210;2023-07-31T03:34:21;99722.72;;;17.77;58.70
49585;BME280;35491;49.142;9.210;2023-07-31T03:35:22;99726.91;;;17.80;58.86
49585;BME280;35491;49.142;9.210;2023-07-31T03:36:25;99729.19;;;17.83;58.70
49585;BME280;35491;49.142;9.210;2023-07-31T03:37:29;99727.34;;;17.83;58.41
49585;BME280;35491;49.142;9.210;2023-07-31T03:38:32;99725.88;;;17.87;58.43
49585;BME280;35491;49.142;9.210;2023-07-31T03:39:35;99735.25;;;17.85;58.56
49585;BME280;35491;49.142;9.210;2023-07-31T03:40:36;99729.00;;;17.84;58.52
49585;BME280;35491;49.142;9.210;2023-07-31T03:41:37;99735.25;;;17.85;58.60
49585;BME280;35491;49.142;9.210;2023-07-31T03:42:42;99736.66;;;17.81;58.38
49585;BME280;35491;49.142;9.210;2023-07-31T03:43:45;99741.25;;;17.80;58.58
49585;BME280;35491;49.142;9.210;2023-07-31T03:44:49;99740.00;;;17.83;58.28
49585;BME280;35491;49.142;9.210;2023-07-31T03:45:51;99740.84;;;17.83;58.16
49585;BME280;35491;49.142;9.210;2023-07-31T03:46:54;99735.25;;;17.85;58.13
49585;BME280;35491;49.142;9.210;2023-07-31T03:47:55;99740.84;;;17.83;58.52
49585;BME280;35491;49.142;9.210;2023-07-31T03:49:00;99734.59;;;17.83;58.57
49585;BME280;35491;49.142;9.210;2023-07-31T03:50:01;99733.38;;;17.85;58.34
49585;BME280;35491;49.142;9.210;2023-07-31T03:51:04;99733.38;;;17.85;58.09
49585;BME280;35491;49.142;9.210;2023-07-31T03:52:06;99726.50;;;17.83;58.47
49585;BME280;35491;49.142;9.210;2023-07-31T03:53:09;99722.97;;;17.82;58.21
49585;BME280;35491;49.142;9.210;2023-07-31T03:54:13;99733.56;;;17.84;58.27
49585;BME280;35491;49.142;9.210;2023-07-31T03:55:16;99721.28;;;17.81;58.42
49585;BME280;35491;49.142;9.210;2023-07-31T03:56:19;99727.34;;;17.83;58.36
49585;BME280;35491;49.142;9.210;2023-07-31T03:57:23;99721.94;;;17.83;58.49
49585;BME280;35491;49.142;9.210;2023-07-31T03:58:24;99722.75;;;17.84;58.62
49585;BME280;35491;49.142;9.210;2023-07-31T03:59:27;99720.91;;;17.84;58.42
49585;BME280;35491;49.142;9.210;2023-07-31T04:00:28;99720.84;;;17.77;58.32
49585;BME280;35491;49.142;9.210;2023-07-31T04:01:32;99723.75;;;17.76;58.54
49585;BME280;35491;49.142;9.210;2023-07-31T04:02:33;99727.09;;;17.78;58.45
49585;BME280;35491;49.142;9.210;2023-07-31T04:03:43;99721.69;;;17.78;58.24
49585;BME280;35491;49.142;9.210;2023-07-31T04:04:46;99726.22;;;17.71;58.41
49585;BME280;35491;49.142;9.210;2023-07-31T04:05:50;99731.63;;;17.71;58.46
49585;BME280;35491;49.142;9.210;2023-07-31T04:06:54;99729.56;;;17.73;58.38
49585;BME280;35491;49.142;9.210;2023-07-31T04:07:58;99732.44;;;17.71;58.58
49585;BME280;35491;49.142;9.210;2023-07-31T04:08:59;99726.22;;;17.71;58.35
49585;BME280;35491;49.142;9.210;2023-07-31T04:10:03;99724.94;;;17.67;58.74
49585;BME280;35491;49.142;9.210;2023-07-31T04:11:06;99734.53;;;17.69;58.33
49585;BME280;35491;49.142;9.210;2023-07-31T04:12:07;99730.81;;;17.70;58.67
49585;BME280;35491;49.142;9.210;2023-07-31T04:13:11;99739.75;;;17.71;58.54
49585;BME280;35491;49.142;9.210;2023-07-31T04:14:12;99729.97;;;17.70;58.36
49585;BME280;35491;49.142;9.210;2023-07-31T04:15:15;99729.56;;;17.73;58.30
49585;BME280;35491;49.142;9.210;2023-07-31T04:16:16;99723.72;;;17.69;58.66
49585;BME280;35491;49.142;9.210;2023-07-31T04:17:19;99726.63;;;17.68;58.42
49585;BME280;35491;49.142;9.210;2023-07-31T04:18:20;99730.97;;;17.69;58.52
49585;BME280;35491;49.142;9.210;2023-07-31T04:19:25;99733.69;;;17.69;58.67
49585;BME280;35491;49.142;9.210;2023-07-31T04:20:26;99733.69;;;17.69;58.29
49585;BME280;35491;49.142;9.210;2023-07-31T04:21:29;99733.31;;;17.72;58.34
49585;BME280;35491;49.142;9.210;2023-07-31T04:22:30;99730.97;;;17.69;58.40
49585;BME280;35491;49.142;9.210;2023-07-31T04:23:34;99739.94;;;17.69;58.12
49585;BME280;35491;49.142;9.210;2023-07-31T04:24:35;99733.69;;;17.69;58.54
49585;BME280;35491;49.142;9.210;2023-07-31T04:25:43;99732.91;;;17.75;58.18
49585;BME280;35491;49.142;9.210;2023-07-31T04:26:44;99742.06;;;17.74;58.03
49585;BME280;35491;49.142;9.210;2023-07-31T04:27:47;99730.22;;;17.75;58.18
49585;BME280;35491;49.142;9.210;2023-07-31T04:28:48;99738.31;;;17.75;58.30
49585;BME280;35491;49.142;9.210;2023-07-31T04:29:51;99731.66;;;17.77;58.12
49585;BME280;35491;49.142;9.210;2023-07-31T04:30:52;99734.56;;;17.76;58.02
49585;BME280;35491;49.142;9.210;2023-07-31T04:31:56;99733.31;;;17.72;58.01
49585;BME280;35491;49.142;9.210;2023-07-31T04:32:56;99729.56;;;17.73;58.37
49585;BME280;35491;49.142;9.210;2023-07-31T04:33:57;99730.38;;;17.73;58.03
49585;BME280;35491;49.142;9.210;2023-07-31T04:35:00;99728.53;;;17.74;58.09
49585;BME280;35491;49.142;9.210;2023-07-31T04:36:01;99729.53;;;17.66;58.21
49585;BME280;35491;49.142;9.210;2023-07-31T04:37:05;99730.56;;;17.65;58.58
49585;BME280;35491;49.142;9.210;2023-07-31T04:38:05;99733.66;;;17.62;58.78
49585;BME280;35491;49.142;9.210;2023-07-31T04:39:06;99729.53;;;17.66;58.78
49585;BME280;35491;49.142;9.210;2023-07-31T04:40:10;99730.97;;;17.69;58.55
49585;BME280;35491;49.142;9.210;2023-07-31T04:41:13;99727.63;;;17.67;58.58
49585;BME280;35491;49.142;9.210;2023-07-31T04:42:17;99732.88;;;17.68;58.24
49585;BME280;35491;49.142;9.210;2023-07-31T04:43:18;99725.78;;;17.67;58.39
49585;BME280;35491;49.142;9.210;2023-07-31T04:44:21;99721.63;;;17.71;58.69
49585;BME280;35491;49.142;9.210;2023-07-31T04:45:22;99730.38;;;17.73;58.62
49585;BME280;35491;49.142;9.210;2023-07-31T04:46:26;99724.81;;;17.75;58.43
49585;BME280;35491;49.142;9.210;2023-07-31T04:47:26;99727.91;;;17.72;58.48
49585;BME280;35491;49.142;9.210;2023-07-31T04:48:27;99722.09;;;17.75;58.43
49585;BME280;35491;49.142;9.210;2023-07-31T04:49:31;99721.88;;;17.76;58.47
49585;BME280;35491;49.142;9.210;2023-07-31T04:50:34;99723.34;;;17.79;58.45
49585;BME280;35491;49.142;9.210;2023-07-31T04:51:38;99726.44;;;17.76;58.37
49585;BME280;35491;49.142;9.210;2023-07-31T04:52:48;99726.06;;;17.79;58.57
49585;BME280;35491;49.142;9.210;2023-07-31T04:53:51;99725.22;;;17.78;58.45
49585;BME280;35491;49.142;9.210;2023-07-31T04:54:52;99721.03;;;17.76;58.81
49585;BME280;35491;49.142;9.210;2023-07-31T04:55:56;99727.72;;;17.80;58.61
49585;BME280;35491;49.142;9.210;2023-07-31T04:56:59;99726.06;;;17.79;58.42
49585;BME280;35491;49.142;9.210;2023-07-31T04:58:03;99722.97;;;17.82;58.32
49585;BME280;35491;49.142;9.210;2023-07-31T04:59:05;99726.91;;;17.86;58.70
49585;BME280;35491;49.142;9.210;2023-07-31T05:00:08;99724.22;;;17.86;58.70
49585;BME280;35491;49.142;9.210;2023-07-31T05:01:09;99722.34;;;17.87;58.33
49585;BME280;35491;49.142;9.210;2023-07-31T05:02:13;99718.81;;;17.86;58.36
49585;BME280;35491;49.142;9.210;2023-07-31T05:03:14;99713.41;;;17.86;58.60
49585;BME280;35491;49.142;9.210;2023-07-31T05:04:17;99715.50;;;17.84;58.70
49585;BME280;35491;49.142;9.210;2023-07-31T05:05:23;99708.81;;;17.80;58.44
49585;BME280;35491;49.142;9.210;2023-07-31T05:06:30;99714.22;;;17.80;58.90
49585;BME280;35491;49.142;9.210;2023-07-31T05:07:31;99712.78;;;17.84;58.40
49585;BME280;35491;49.142;9.210;2023-07-31T05:08:35;99713.00;;;17.89;58.45
49585;BME280;35491;49.142;9.210;2023-07-31T05:09:35;99704.91;;;17.89;58.68
49585;BME280;35491;49.142;9.210;2023-07-31T05:10:39;99704.91;;;17.89;58.32
49585;BME280;35491;49.142;9.210;2023-07-31T05:11:42;99704.50;;;17.92;58.30
49585;BME280;35491;49.142;9.210;2023-07-31T05:12:50;99703.25;;;17.95;58.54
49585;BME280;35491;49.142;9.210;2023-07-31T05:13:56;99708.03;;;17.93;58.60
49585;BME280;35491;49.142;9.210;2023-07-31T05:15:06;99702.63;;;17.93;58.45
49585;BME280;35491;49.142;9.210;2023-07-31T05:16:11;99706.19;;;17.93;58.37
49585;BME280;35491;49.142;9.210;2023-07-31T05:17:16;99703.66;;;17.92;58.22
49585;BME280;35491;49.142;9.210;2023-07-31T05:18:17;99708.41;;;17.83;58.49
49585;BME280;35491;49.142;9.210;2023-07-31T05:19:25;99713.00;;;17.89;58.05
49585;BME280;35491;49.142;9.210;2023-07-31T05:20:26;99708.63;;;17.88;58.17
49585;BME280;35491;49.142;9.210;2023-07-31T05:21:29;99701.59;;;17.94;58.21
49585;BME280;35491;49.142;9.210;2023-07-31T05:22:30;99700.13;;;17.91;57.97
49585;BME280;35491;49.142;9.210;2023-07-31T05:23:33;99698.66;;;17.96;58.04
49585;BME280;35491;49.142;9.210;2023-07-31T05:24:34;99697.66;;;17.97;58.15
49585;BME280;35491;49.142;9.210;2023-07-31T05:25:38;99702.69;;;18.00;58.07
49585;BME280;35491;49.142;9.210;2023-07-31T05:26:38;99699.97;;;18.00;58.11
49585;BME280;35491;49.142;9.210;2023-07-31T05:27:42;99697.84;;;17.95;57.93
49585;BME280;35491;49.142;9.210;2023-07-31T05:28:55;99704.75;;;17.98;58.12
49585;BME280;35491;49.142;9.210;2023-07-31T05:30:00;99702.28;;;18.03;57.97
49585;BME280;35491;49.142;9.210;2023-07-31T05:31:01;99706.44;;;18.05;57.92
49585;BME280;35491;49.142;9.210;2023-07-31T05:32:25;99706.22;;;18.00;57.82
49585;BME280;35491;49.142;9.210;2023-07-31T05:37:43;99706.41;;;17.99;58.22
49585;BME280;35491;49.142;9.210;2023-07-31T05:38:48;99700.19;;;18.05;58.11
49585;BME280;35491;49.142;9.210;2023-07-31T05:41:14;99702.44;;;17.95;58.34
49585;BME280;35491;49.142;9.210;2023-07-31T05:42:14;99700.41;;;18.03;57.99
49585;BME280;35491;49.142;9.210;2023-07-31T05:43:26;99707.66;;;17.96;58.32
49585;BME280;35491;49.142;9.210;2023-07-31T05:44:36;99704.75;;;17.98;58.06
49585;BME280;35491;49.142;9.210;2023-07-31T05:45:42;99698.94;;;18.01;57.95
49585;BME280;35491;49.142;9.210;2023-07-31T05:46:43;99705.81;;;18.03;58.10
49585;BME280;35491;49.142;9.210;2023-07-31T05:47:49;99703.06;;;17.97;58.56
49585;BME280;35491;49.142;9.210;2023-07-31T05:48:53;99703.13;;;18.03;58.14
49585;BME280;35491;49.142;9.210;2023-07-31T05:50:03;99707.09;;;18.07;58.16
49585;BME280;35491;49.142;9.210;2023-07-31T06:07:09;99695.13;;;18.44;57.42
49585;BME280;35491;49.142;9.210;2023-07-31T06:08:35;99699.53;;;18.51;57.50
49585;BME280;35491;49.142;9.210;2023-07-31T06:09:54;99695.97;;;18.58;57.09
49585;BME280;35491;49.142;9.210;2023-07-31T06:11:08;99687.47;;;18.61;57.00
49585;BME280;35491;49.142;9.210;2023-07-31T06:12:13;99696.41;;;18.68;57.08
49585;BME280;35491;49.142;9.210;2023-07-31T06:13:19;99701.38;;;18.71;56.73
49585;BME280;35491;49.142;9.210;2023-07-31T06:14:22;99704.97;;;18.78;56.83
49585;BME280;35491;49.142;9.210;2023-07-31T06:15:50;99696.41;;;18.75;56.76
49585;BME280;35491;49.142;9.210;2023-07-31T06:18:18;99700.38;;;18.85;56.42
49585;BME280;35491;49.142;9.210;2023-07-31T06:19:19;99696.63;;;18.73;56.91
49585;BME280;35491;49.142;9.210;2023-07-31T06:20:26;99698.72;;;18.84;56.26
49585;BME280;35491;49.142;9.210;2023-07-31T06:21:30;99695.59;;;18.88;56.10
49585;BME280;35491;49.142;9.210;2023-07-31T06:22:41;99702.47;;;18.90;56.08
49585;BME280;35491;49.142;9.210;2023-07-31T06:23:45;99699.16;;;18.95;56.28
49585;BME280;35491;49.142;9.210;2023-07-31T06:56:12;99673.84;;;20.14;53.14
49585;BME280;35491;49.142;9.210;2023-07-31T06:57:13;99674.22;;;20.24;53.00
49585;BME280;35491;49.142;9.210;2023-07-31T06:58:16;99672.16;;;20.19;53.30
49585;BME280;35491;49.142;9.210;2023-07-31T06:59:17;99676.97;;;20.17;52.95
49585;BME280;35491;49.142;9.210;2023-07-31T07:00:21;99684.25;;;20.23;52.94
49585;BME280;35491;49.142;9.210;2023-07-31T07:01:22;99679.63;;;20.24;52.92
49585;BME280;35491;49.142;9.210;2023-07-31T07:02:26;99667.94;;;20.30;52.89
49585;BME280;35491;49.142;9.210;2023-07-31T07:03:26;99668.38;;;20.27;52.14
49585;BME280;35491;49.142;9.210;2023-07-31T07:04:30;99677.31;;;20.27;51.65
49585;BME280;35491;49.142;9.210;2023-07-31T07:05:31;99673.81;;;20.20;51.42
49585;BME280;35491;49.142;9.210;2023-07-31T07:06:31;99680.88;;;20.28;51.54
49585;BME280;35491;49.142;9.210;2023-07-31T07:07:35;99685.91;;;20.24;51.34
49585;BME280;35491;49.142;9.210;2023-07-31T07:08:36;99679.63;;;20.31;50.77
49585;BME280;35491;49.142;9.210;2023-07-31T07:09:39;99670.19;;;20.33;50.83
49585;BME280;35491;49.142;9.210;2023-07-31T07:10:40;99672.50;;;20.30;50.68